sensor_id;sensor_type;location;lat;lon;timestamp;pressure;altitude;pressure_sealevel;temperature;humidity
6136;BME280;24008;42.664;23.372;2023-05-16T00:00:00;94370.56;;;13.22;100.00
6136;BME280;24008;42.664;23.372;2023-05-16T00:02:27;94356.13;;;13.21;100.00
6136;BME280;24008;42.664;23.372;2023-05-16T00:04:53;94450.84;;;13.94;100.00
6136;BME280;24008;42.664;23.372;2023-05-16T00:07:20;94458.25;;;13.89;100.00
6136;BME280;24008;42.664;23.372;2023-05-16T00:09:47;94399.00;;;13.59;100.00
6136;BME280;24008;42.664;23.372;2023-05-16T00:12:14;94411.81;;;13.59;100.00
6136;BME280;24008;42.664;23.372;2023-05-16T00:14:42;94359.28;;;13.39;100.00
6136;BME280;24008;42.664;23.372;2023-05-16T00:17:10;94448.75;;;13.97;100.00
6136;BME280;24008;42.664;23.372;2023-05-16T00:19:37;94405.03;;;13.66;100.00
6136;BME280;24008;42.664;23.372;2023-05-16T00:22:04;94418.84;;;13.74;100.00
6136;BME280;24008;42.664;23.372;2023-05-16T00:24:32;94445.72;;;13.94;100.00
6136;BME280;24008;42.664;23.372;2023-05-16T00:26:59;94442.81;;;13.89;100.00
6136;BME280;24008;42.664;23.372;2023-05-16T00:29:26;94439.19;;;13.83;100.00
6136;BME280;24008;42.664;23.372;2023-05-16T00:31:53;94427.50;;;13.73;100.00
6136;BME280;24008;42.664;23.372;2023-05-16T00:34:21;94383.63;;;13.43;100.00
6136;BME280;24008;42.664;23.372;2023-05-16T00:36:49;94442.22;;;13.79;100.00
6136;BME280;24008;42.664;23.372;2023-05-16T00:39:16;94380.78;;;13.38;100.00
6136;BME280;24008;42.664;23.372;2023-05-16T00:41:43;94367.94;;;13.38;100.00
6136;BME280;24008;42.664;23.372;2023-05-16T00:44:10;94429.38;;;13.79;100.00
6136;BME280;24008;42.664;23.372;2023-05-16T00:46:36;94359.28;;;13.39;100.00
6136;BME280;24008;42.664;23.372;2023-05-16T00:49:04;94413.69;;;13.74;100.00
6136;BME280;24008;42.664;23.372;2023-05-16T00:51:32;94358.94;;;13.42;100.00
6136;BME280;24008;42.664;23.372;2023-05-16T00:53:59;94409.00;;;13.77;100.00
6136;BME280;24008;42.664;23.372;2023-05-16T00:56:26;94291.25;;;12.96;100.00
6136;BME280;24008;42.664;23.372;2023-05-16T00:58:53;94364.00;;;13.58;100.00
6136;BME280;24008;42.664;23.372;2023-05-16T01:01:22;94401.13;;;13.79;100.00
6136;BME280;24008;42.664;23.372;2023-05-16T01:03:50;94318.28;;;13.23;100.00
6136;BME280;24008;42.664;23.372;2023-05-16T01:06:17;94395.84;;;13.80;100.00
6136;BME280;24008;42.664;23.372;2023-05-16T01:08:45;94392.13;;;13.83;100.00
6136;BME280;24008;42.664;23.372;2023-05-16T01:11:26;94401.94;;;13.79;100.00
6136;BME280;24008;42.664;23.372;2023-05-16T01:13:59;94368.00;;;13.61;100.00
6136;BME280;24008;42.664;23.372;2023-05-16T01:16:34;94403.88;;;13.77;100.00
6136;BME280;24008;42.664;23.372;2023-05-16T01:19:09;94385.72;;;13.79;100.00
6136;BME280;24008;42.664;23.372;2023-05-16T01:21:48;94389.72;;;13.81;100.00
6136;BME280;24008;42.664;23.372;2023-05-16T01:24:22;94348.59;;;13.58;100.00
6136;BME280;24008;42.664;23.372;2023-05-16T01:26:55;94340.13;;;13.50;100.00
6136;BME280;24008;42.664;23.372;2023-05-16T01:29:22;94386.53;;;13.79;100.00
6136;BME280;24008;42.664;23.372;2023-05-16T01:31:49;94381.13;;;13.74;100.00
6136;BME280;24008;42.664;23.372;2023-05-16T01:34:16;94378.06;;;13.70;100.00
6136;BME280;24008;42.664;23.372;2023-05-16T01:36:47;94375.50;;;13.70;100.00
6136;BME280;24008;42.664;23.372;2023-05-16T01:39:26;94379.53;;;13.65;100.00
6136;BME280;24008;42.664;23.372;2023-05-16T01:42:00;94344.47;;;13.49;100.00
6136;BME280;24008;42.664;23.372;2023-05-16T01:44:31;94331.66;;;13.41;100.00
6136;BME280;24008;42.664;23.372;2023-05-16T01:47:01;94356.13;;;13.60;100.00
6136;BME280;24008;42.664;23.372;2023-05-16T01:49:34;94358.22;;;13.56;100.00
6136;BME280;24008;42.664;23.372;2023-05-16T01:52:07;94349.72;;;13.56;100.00
6136;BME280;24008;42.664;23.372;2023-05-16T01:54:36;94348.28;;;13.53;100.00
6136;BME280;24008;42.664;23.372;2023-05-16T01:57:05;94291.50;;;13.09;100.00
6136;BME280;24008;42.664;23.372;2023-05-16T01:59:35;94359.56;;;13.52;100.00
6136;BME280;24008;42.664;23.372;2023-05-16T02:02:02;94345.44;;;13.48;100.00
6136;BME280;24008;42.664;23.372;2023-05-16T02:04:29;94319.19;;;13.30;100.00
6136;BME280;24008;42.664;23.372;2023-05-16T02:06:56;94315.22;;;13.27;100.00
6136;BME280;24008;42.664;23.372;2023-05-16T02:09:24;94320.50;;;13.26;100.00
6136;BME280;24008;42.664;23.372;2023-05-16T02:11:51;94347.03;;;13.49;100.00
6136;BME280;24008;42.664;23.372;2023-05-16T02:14:20;94343.69;;;13.49;100.00
6136;BME280;24008;42.664;23.372;2023-05-16T02:16:47;94276.59;;;13.05;100.00
6136;BME280;24008;42.664;23.372;2023-05-16T02:19:14;94315.97;;;13.36;100.00
6136;BME280;24008;42.664;23.372;2023-05-16T02:21:41;94335.44;;;13.53;100.00
6136;BME280;24008;42.664;23.372;2023-05-16T02:24:07;94350.53;;;13.56;100.00
6136;BME280;24008;42.664;23.372;2023-05-16T02:26:34;94321.06;;;13.44;100.00
6136;BME280;24008;42.664;23.372;2023-05-16T02:29:01;94312.56;;;13.44;100.00
6136;BME280;24008;42.664;23.372;2023-05-16T02:31:31;94322.00;;;13.51;100.00
6136;BME280;24008;42.664;23.372;2023-05-16T02:33:58;94342.16;;;13.62;100.00
6136;BME280;24008;42.664;23.372;2023-05-16T02:36:26;94338.81;;;13.62;100.00
6136;BME280;24008;42.664;23.372;2023-05-16T02:38:53;94345.69;;;13.61;100.00
6136;BME280;24008;42.664;23.372;2023-05-16T02:41:20;94330.31;;;13.53;100.00
6136;BME280;24008;42.664;23.372;2023-05-16T02:43:47;94212.31;;;12.75;100.00
6136;BME280;24008;42.664;23.372;2023-05-16T02:46:22;94291.13;;;13.28;100.00
6136;BME280;24008;42.664;23.372;2023-05-16T02:48:50;94339.72;;;13.69;100.00
6136;BME280;24008;42.664;23.372;2023-05-16T02:51:19;94264.44;;;13.15;100.00
6136;BME280;24008;42.664;23.372;2023-05-16T02:53:46;94342.75;;;13.73;100.00
6136;BME280;24008;42.664;23.372;2023-05-16T02:56:12;94345.00;;;13.76;100.00
6136;BME280;24008;42.664;23.372;2023-05-16T02:58:39;94246.13;;;13.18;100.00
6136;BME280;24008;42.664;23.372;2023-05-16T03:01:06;94326.00;;;13.77;100.00
6136;BME280;24008;42.664;23.372;2023-05-16T03:03:33;94329.22;;;13.79;100.00
6136;BME280;24008;42.664;23.372;2023-05-16T03:06:02;94326.81;;;13.77;100.00
6136;BME280;24008;42.664;23.372;2023-05-16T03:08:29;94328.09;;;13.81;100.00
6136;BME280;24008;42.664;23.372;2023-05-16T03:10:55;94190.72;;;12.92;100.00
6136;BME280;24008;42.664;23.372;2023-05-16T03:13:22;94316.44;;;13.70;99.71
6136;BME280;24008;42.664;23.372;2023-05-16T03:15:49;94275.00;;;13.51;99.22
6136;BME280;24008;42.664;23.372;2023-05-16T03:18:16;94233.22;;;13.34;98.65
6136;BME280;24008;42.664;23.372;2023-05-16T03:20:43;94336.84;;;13.95;98.40
6136;BME280;24008;42.664;23.372;2023-05-16T03:23:11;94261.19;;;13.52;97.88
6136;BME280;24008;42.664;23.372;2023-05-16T03:25:38;94328.78;;;13.98;98.46
6136;BME280;24008;42.664;23.372;2023-05-16T03:28:05;94058.72;;;12.26;98.33
6136;BME280;24008;42.664;23.372;2023-05-16T03:30:32;94330.72;;;13.96;98.26
6136;BME280;24008;42.664;23.372;2023-05-16T03:32:59;94321.88;;;13.98;98.61
6136;BME280;24008;42.664;23.372;2023-05-16T03:35:26;94332.00;;;14.00;98.07
6136;BME280;24008;42.664;23.372;2023-05-16T03:37:53;94326.50;;;14.03;97.36
6136;BME280;24008;42.664;23.372;2023-05-16T03:40:21;94325.81;;;14.09;97.60
6136;BME280;24008;42.664;23.372;2023-05-16T03:42:48;94330.78;;;14.11;97.25
6136;BME280;24008;42.664;23.372;2023-05-16T03:45:15;94309.59;;;14.09;97.54
6136;BME280;24008;42.664;23.372;2023-05-16T03:47:42;94319.41;;;14.05;98.20
6136;BME280;24008;42.664;23.372;2023-05-16T03:50:09;94329.69;;;14.05;98.43
6136;BME280;24008;42.664;23.372;2023-05-16T03:52:36;94328.41;;;14.01;98.98
6136;BME280;24008;42.664;23.372;2023-05-16T03:55:03;94310.28;;;13.80;99.28
6136;BME280;24008;42.664;23.372;2023-05-16T03:57:32;94333.13;;;13.97;99.62
6136;BME280;24008;42.664;23.372;2023-05-16T03:59:59;94325.25;;;13.99;99.29
6136;BME280;24008;42.664;23.372;2023-05-16T04:02:26;94164.75;;;12.95;99.73
6136;BME280;24008;42.664;23.372;2023-05-16T04:04:53;94155.19;;;12.89;99.71
6136;BME280;24008;42.664;23.372;2023-05-16T04:07:20;94322.84;;;13.97;99.81
6136;BME280;24008;42.664;23.372;2023-05-16T04:09:46;94329.59;;;13.98;99.13
6136;BME280;24008;42.664;23.372;2023-05-16T04:12:13;94239.72;;;13.45;99.65
6136;BME280;24008;42.664;23.372;2023-05-16T04:14:41;94337.56;;;14.03;99.36
6136;BME280;24008;42.664;23.372;2023-05-16T04:17:08;94309.94;;;13.83;99.42
6136;BME280;24008;42.664;23.372;2023-05-16T04:19:35;94171.16;;;12.99;98.51
6136;BME280;24008;42.664;23.372;2023-05-16T04:22:02;94307.03;;;13.86;98.24
6136;BME280;24008;42.664;23.372;2023-05-16T04:24:29;94313.59;;;13.88;98.29
6136;BME280;24008;42.664;23.372;2023-05-16T04:26:55;94339.31;;;14.11;97.94
6136;BME280;24008;42.664;23.372;2023-05-16T04:29:22;94330.00;;;14.10;97.83
6136;BME280;24008;42.664;23.372;2023-05-16T04:31:50;94274.22;;;13.73;97.90
6136;BME280;24008;42.664;23.372;2023-05-16T04:34:18;94277.03;;;13.78;98.39
6136;BME280;24008;42.664;23.372;2023-05-16T04:36:45;94327.06;;;14.13;98.14
6136;BME280;24008;42.664;23.372;2023-05-16T04:39:12;94326.38;;;14.19;98.20
6136;BME280;24008;42.664;23.372;2023-05-16T04:41:38;94334.25;;;14.18;97.61
6136;BME280;24008;42.664;23.372;2023-05-16T04:44:05;94304.31;;;14.02;97.53
6136;BME280;24008;42.664;23.372;2023-05-16T04:46:33;94318.50;;;14.21;96.80
6136;BME280;24008;42.664;23.372;2023-05-16T04:49:01;94327.66;;;14.23;96.30
6136;BME280;24008;42.664;23.372;2023-05-16T04:51:28;94328.25;;;14.25;96.73
6136;BME280;24008;42.664;23.372;2023-05-16T04:53:56;94301.34;;;14.13;96.28
6136;BME280;24008;42.664;23.372;2023-05-16T04:56:23;94321.16;;;14.27;96.47
6136;BME280;24008;42.664;23.372;2023-05-16T04:58:51;94327.22;;;14.34;95.37
6136;BME280;24008;42.664;23.372;2023-05-16T05:01:19;94323.50;;;14.37;95.30
6136;BME280;24008;42.664;23.372;2023-05-16T05:03:45;94250.94;;;13.89;95.20
6136;BME280;24008;42.664;23.372;2023-05-16T05:06:13;94324.94;;;14.39;95.29
6136;BME280;24008;42.664;23.372;2023-05-16T05:08:40;94307.69;;;14.25;95.26
6136;BME280;24008;42.664;23.372;2023-05-16T05:11:07;94328.78;;;14.44;95.26
6136;BME280;24008;42.664;23.372;2023-05-16T05:13:34;94177.25;;;13.52;93.76
6136;BME280;24008;42.664;23.372;2023-05-16T05:16:01;94340.59;;;14.53;93.66
6136;BME280;24008;42.664;23.372;2023-05-16T05:18:29;94332.53;;;14.56;93.05
6136;BME280;24008;42.664;23.372;2023-05-16T05:20:56;94335.28;;;14.54;93.05
6136;BME280;24008;42.664;23.372;2023-05-16T05:23:24;94224.84;;;13.86;93.79
6136;BME280;24008;42.664;23.372;2023-05-16T05:25:51;94336.88;;;14.55;93.83
6136;BME280;24008;42.664;23.372;2023-05-16T05:28:18;94340.25;;;14.56;93.66
6136;BME280;24008;42.664;23.372;2023-05-16T05:30:45;94340.25;;;14.56;93.89
6136;BME280;24008;42.664;23.372;2023-05-16T05:33:15;94226.25;;;13.88;93.22
6136;BME280;24008;42.664;23.372;2023-05-16T05:35:42;94321.19;;;14.65;92.33
6136;BME280;24008;42.664;23.372;2023-05-16T05:38:09;94250.78;;;14.28;91.95
6136;BME280;24008;42.664;23.372;2023-05-16T05:40:37;94217.59;;;14.04;92.24
6136;BME280;24008;42.664;23.372;2023-05-16T05:43:04;94305.41;;;14.68;92.24
6136;BME280;24008;42.664;23.372;2023-05-16T05:45:30;94121.63;;;13.45;92.74
6136;BME280;24008;42.664;23.372;2023-05-16T05:47:57;94143.09;;;13.52;93.37
6136;BME280;24008;42.664;23.372;2023-05-16T05:50:24;94313.22;;;14.60;93.77
6136;BME280;24008;42.664;23.372;2023-05-16T05:52:51;94299.38;;;14.61;93.40
6136;BME280;24008;42.664;23.372;2023-05-16T05:55:18;94205.50;;;13.90;93.94
6136;BME280;24008;42.664;23.372;2023-05-16T05:57:46;94273.03;;;14.44;93.83
6136;BME280;24008;42.664;23.372;2023-05-16T06:00:13;94311.69;;;14.65;94.35
6136;BME280;24008;42.664;23.372;2023-05-16T06:02:40;94300.28;;;14.68;94.09
6136;BME280;24008;42.664;23.372;2023-05-16T06:05:08;94277.72;;;14.55;93.91
6136;BME280;24008;42.664;23.372;2023-05-16T06:07:34;94234.00;;;14.40;92.98
6136;BME280;24008;42.664;23.372;2023-05-16T06:10:01;94251.56;;;14.52;92.59
6136;BME280;24008;42.664;23.372;2023-05-16T06:12:29;94270.53;;;14.65;92.68
6136;BME280;24008;42.664;23.372;2023-05-16T06:14:57;94107.69;;;13.62;92.29
6136;BME280;24008;42.664;23.372;2023-05-16T06:17:24;94305.16;;;14.92;92.72
6136;BME280;24008;42.664;23.372;2023-05-16T06:19:51;94144.47;;;13.92;91.65
6136;BME280;24008;42.664;23.372;2023-05-16T06:22:18;94250.53;;;14.61;91.48
6136;BME280;24008;42.664;23.372;2023-05-16T06:24:44;94211.16;;;14.37;91.97
6136;BME280;24008;42.664;23.372;2023-05-16T06:27:11;94308.25;;;15.02;90.89
6136;BME280;24008;42.664;23.372;2023-05-16T06:29:38;94210.19;;;14.38;90.50
6136;BME280;24008;42.664;23.372;2023-05-16T06:32:06;94255.31;;;14.78;90.43
6136;BME280;24008;42.664;23.372;2023-05-16T06:34:33;94305.25;;;15.13;88.90
6136;BME280;24008;42.664;23.372;2023-05-16T06:37:00;94256.09;;;14.79;88.49
6136;BME280;24008;42.664;23.372;2023-05-16T06:39:28;94295.28;;;15.10;88.44
6136;BME280;24008;42.664;23.372;2023-05-16T06:41:55;94301.25;;;15.11;88.58
6136;BME280;24008;42.664;23.372;2023-05-16T06:44:22;94302.03;;;15.11;88.36
6136;BME280;24008;42.664;23.372;2023-05-16T06:46:49;94299.75;;;15.17;88.82
6136;BME280;24008;42.664;23.372;2023-05-16T06:49:17;94289.44;;;15.17;88.69
6136;BME280;24008;42.664;23.372;2023-05-16T06:51:44;94283.31;;;15.18;88.45
6136;BME280;24008;42.664;23.372;2023-05-16T06:54:11;94228.78;;;14.78;88.37
6136;BME280;24008;42.664;23.372;2023-05-16T06:56:37;94281.19;;;15.21;88.45
6136;BME280;24008;42.664;23.372;2023-05-16T06:59:04;94276.91;;;15.28;88.43
6136;BME280;24008;42.664;23.372;2023-05-16T07:01:31;94275.75;;;15.31;87.49
6136;BME280;24008;42.664;23.372;2023-05-16T07:03:58;94291.84;;;15.33;86.87
6136;BME280;24008;42.664;23.372;2023-05-16T07:06:26;94298.38;;;15.35;86.93
6136;BME280;24008;42.664;23.372;2023-05-16T07:08:53;94270.22;;;15.34;86.54
6136;BME280;24008;42.664;23.372;2023-05-16T07:11:19;94181.50;;;14.79;86.38
6136;BME280;24008;42.664;23.372;2023-05-16T07:13:46;94279.53;;;15.49;86.48
6136;BME280;24008;42.664;23.372;2023-05-16T07:16:13;94283.19;;;15.55;85.23
6136;BME280;24008;42.664;23.372;2023-05-16T07:18:40;94153.19;;;14.79;84.72
6136;BME280;24008;42.664;23.372;2023-05-16T07:21:07;94257.75;;;15.52;84.27
6136;BME280;24008;42.664;23.372;2023-05-16T07:23:35;94243.47;;;15.49;84.10
6136;BME280;24008;42.664;23.372;2023-05-16T07:26:02;94218.94;;;15.32;83.92
6136;BME280;24008;42.664;23.372;2023-05-16T07:28:29;94154.22;;;14.99;83.34
6136;BME280;24008;42.664;23.372;2023-05-16T07:30:55;94243.63;;;15.63;83.06
6136;BME280;24008;42.664;23.372;2023-05-16T07:33:23;94232.22;;;15.72;82.59
6136;BME280;24008;42.664;23.372;2023-05-16T07:35:51;94178.91;;;15.30;83.05
6136;BME280;24008;42.664;23.372;2023-05-16T07:38:19;94219.25;;;15.44;83.10
6136;BME280;24008;42.664;23.372;2023-05-16T07:40:48;94254.75;;;15.84;83.12
6136;BME280;24008;42.664;23.372;2023-05-16T07:43:15;94124.44;;;14.90;82.48
6136;BME280;24008;42.664;23.372;2023-05-16T07:45:41;94236.34;;;15.66;82.12
6136;BME280;24008;42.664;23.372;2023-05-16T07:48:08;94102.59;;;14.86;81.61
6136;BME280;24008;42.664;23.372;2023-05-16T07:50:35;94221.50;;;15.68;81.48
6136;BME280;24008;42.664;23.372;2023-05-16T07:53:02;94257.91;;;16.08;81.10
6136;BME280;24008;42.664;23.372;2023-05-16T07:55:29;94143.88;;;15.35;81.24
6136;BME280;24008;42.664;23.372;2023-05-16T07:57:57;94265.47;;;16.09;81.08
6136;BME280;24008;42.664;23.372;2023-05-16T08:00:24;94256.94;;;16.09;81.00
6136;BME280;24008;42.664;23.372;2023-05-16T08:02:51;94198.06;;;15.63;80.24
6136;BME280;24008;42.664;23.372;2023-05-16T08:05:18;94275.47;;;16.19;79.97
6136;BME280;24008;42.664;23.372;2023-05-16T08:07:45;94254.09;;;16.25;79.92
6136;BME280;24008;42.664;23.372;2023-05-16T08:10:12;94247.81;;;16.34;79.25
6136;BME280;24008;42.664;23.372;2023-05-16T08:12:39;94242.28;;;16.37;78.46
6136;BME280;24008;42.664;23.372;2023-05-16T08:15:08;94224.44;;;16.42;78.93
6136;BME280;24008;42.664;23.372;2023-05-16T08:17:35;94227.88;;;16.49;78.24
6136;BME280;24008;42.664;23.372;2023-05-16T08:20:03;94230.50;;;16.56;78.32
6136;BME280;24008;42.664;23.372;2023-05-16T08:22:30;94204.84;;;16.48;78.43
6136;BME280;24008;42.664;23.372;2023-05-16T08:24:57;94065.34;;;15.67;77.69
6136;BME280;24008;42.664;23.372;2023-05-16T08:27:25;94230.88;;;16.81;77.21
6136;BME280;24008;42.664;23.372;2023-05-16T08:29:51;94253.34;;;16.87;76.55
6136;BME280;24008;42.664;23.372;2023-05-16T08:32:20;94248.63;;;16.97;76.79
6136;BME280;24008;42.664;23.372;2023-05-16T08:34:47;94244.75;;;17.14;76.32
6136;BME280;24008;42.664;23.372;2023-05-16T08:37:13;94191.47;;;17.00;75.38
6136;BME280;24008;42.664;23.372;2023-05-16T08:39:40;94134.00;;;16.85;75.09
6136;BME280;24008;42.664;23.372;2023-05-16T08:42:07;94235.38;;;17.68;73.70
6136;BME280;24008;42.664;23.372;2023-05-16T08:44:34;94233.03;;;17.73;72.58
6136;BME280;24008;42.664;23.372;2023-05-16T08:47:06;94106.00;;;16.82;72.32
6136;BME280;24008;42.664;23.372;2023-05-16T08:49:38;94243.91;;;17.61;72.44
6136;BME280;24008;42.664;23.372;2023-05-16T08:52:08;94230.03;;;17.69;71.99
6136;BME280;24008;42.664;23.372;2023-05-16T08:54:35;94132.16;;;17.33;71.57
6136;BME280;24008;42.664;23.372;2023-05-16T08:57:03;94159.03;;;17.65;69.55
6136;BME280;24008;42.664;23.372;2023-05-16T08:59:31;94227.28;;;18.30;69.76
6136;BME280;24008;42.664;23.372;2023-05-16T09:01:58;94234.22;;;18.49;68.73
6136;BME280;24008;42.664;23.372;2023-05-16T09:04:25;94239.78;;;18.53;69.41
6136;BME280;24008;42.664;23.372;2023-05-16T09:06:53;94248.75;;;18.50;68.69
6136;BME280;24008;42.664;23.372;2023-05-16T09:09:20;94219.91;;;18.40;68.20
6136;BME280;24008;42.664;23.372;2023-05-16T09:11:47;94245.78;;;18.40;67.99
6136;BME280;24008;42.664;23.372;2023-05-16T09:14:14;94237.03;;;18.41;68.30
6136;BME280;24008;42.664;23.372;2023-05-16T09:16:41;94191.66;;;18.19;67.74
6136;BME280;24008;42.664;23.372;2023-05-16T09:19:11;94215.53;;;18.34;67.81
6136;BME280;24008;42.664;23.372;2023-05-16T09:21:38;94232.63;;;18.42;68.46
6136;BME280;24008;42.664;23.372;2023-05-16T09:24:08;94226.66;;;18.48;69.30
6136;BME280;24008;42.664;23.372;2023-05-16T09:26:36;94193.66;;;18.30;68.03
6136;BME280;24008;42.664;23.372;2023-05-16T09:29:09;94174.53;;;18.24;68.52
6136;BME280;24008;42.664;23.372;2023-05-16T09:31:36;94106.56;;;17.84;68.24
6136;BME280;24008;42.664;23.372;2023-05-16T09:34:03;94219.50;;;18.56;67.28
6136;BME280;24008;42.664;23.372;2023-05-16T09:36:32;94184.09;;;18.17;67.39
6136;BME280;24008;42.664;23.372;2023-05-16T09:39:19;94220.69;;;18.41;68.14
6136;BME280;24008;42.664;23.372;2023-05-16T09:41:51;94217.72;;;18.44;68.38
6136;BME280;24008;42.664;23.372;2023-05-16T09:44:17;94128.66;;;17.74;68.73
6136;BME280;24008;42.664;23.372;2023-05-16T09:46:44;94251.16;;;18.25;68.57
6136;BME280;24008;42.664;23.372;2023-05-16T09:49:13;94169.41;;;18.05;68.90
6136;BME280;24008;42.664;23.372;2023-05-16T09:51:45;94212.72;;;18.35;68.26
6136;BME280;24008;42.664;23.372;2023-05-16T09:54:20;94156.25;;;17.99;68.51
6136;BME280;24008;42.664;23.372;2023-05-16T09:56:56;93903.63;;;16.24;68.47
6136;BME280;24008;42.664;23.372;2023-05-16T09:59:23;94197.44;;;18.21;69.12
6136;BME280;24008;42.664;23.372;2023-05-16T10:01:49;94175.31;;;18.38;69.22
6136;BME280;24008;42.664;23.372;2023-05-16T10:04:18;94205.94;;;18.81;68.15
6136;BME280;24008;42.664;23.372;2023-05-16T10:06:45;94143.22;;;18.65;66.15
6136;BME280;24008;42.664;23.372;2023-05-16T10:09:14;94215.41;;;19.06;65.94
6136;BME280;24008;42.664;23.372;2023-05-16T10:11:42;94121.53;;;18.53;65.76
6136;BME280;24008;42.664;23.372;2023-05-16T10:14:12;94225.69;;;19.26;65.18
6136;BME280;24008;42.664;23.372;2023-05-16T10:16:42;94214.31;;;19.27;65.61
6136;BME280;24008;42.664;23.372;2023-05-16T10:19:11;94217.31;;;19.31;65.26
6136;BME280;24008;42.664;23.372;2023-05-16T10:21:39;94219.16;;;19.11;65.66
6136;BME280;24008;42.664;23.372;2023-05-16T10:24:08;94211.03;;;19.00;66.38
6136;BME280;24008;42.664;23.372;2023-05-16T10:26:37;93999.59;;;17.59;66.58
6136;BME280;24008;42.664;23.372;2023-05-16T10:29:04;94136.31;;;18.59;66.43
6136;BME280;24008;42.664;23.372;2023-05-16T10:31:33;94174.81;;;18.94;66.46
6136;BME280;24008;42.664;23.372;2023-05-16T10:34:00;94198.44;;;19.11;66.97
6136;BME280;24008;42.664;23.372;2023-05-16T10:36:27;94119.53;;;18.68;66.90
6136;BME280;24008;42.664;23.372;2023-05-16T10:38:54;94202.16;;;19.21;66.14
6136;BME280;24008;42.664;23.372;2023-05-16T10:41:22;94197.00;;;19.21;65.91
6136;BME280;24008;42.664;23.372;2023-05-16T10:43:55;94172.72;;;19.09;66.23
6136;BME280;24008;42.664;23.372;2023-05-16T10:46:25;94013.19;;;18.19;66.28
6136;BME280;24008;42.664;23.372;2023-05-16T10:48:53;94145.03;;;19.48;66.56
6136;BME280;24008;42.664;23.372;2023-05-16T10:51:34;94156.47;;;19.71;66.19
6136;BME280;24008;42.664;23.372;2023-05-16T10:54:04;94162.97;;;19.81;63.95
6136;BME280;24008;42.664;23.372;2023-05-16T10:56:32;94094.81;;;19.49;63.04
6136;BME280;24008;42.664;23.372;2023-05-16T10:58:59;94126.03;;;19.85;62.67
6136;BME280;24008;42.664;23.372;2023-05-16T11:01:28;94115.53;;;19.80;62.22
6136;BME280;24008;42.664;23.372;2023-05-16T11:04:05;94021.16;;;19.06;63.02
6136;BME280;24008;42.664;23.372;2023-05-16T11:06:33;94173.78;;;20.02;62.95
6136;BME280;24008;42.664;23.372;2023-05-16T11:09:05;94174.69;;;19.90;63.14
6136;BME280;24008;42.664;23.372;2023-05-16T11:11:38;94041.34;;;18.91;63.63
6136;BME280;24008;42.664;23.372;2023-05-16T11:14:06;94143.69;;;19.38;64.89
6136;BME280;24008;42.664;23.372;2023-05-16T11:16:33;94175.94;;;19.49;64.78
6136;BME280;24008;42.664;23.372;2023-05-16T11:19:05;94098.59;;;18.77;65.13
6136;BME280;24008;42.664;23.372;2023-05-16T11:22:04;94166.13;;;19.20;66.01
6136;BME280;24008;42.664;23.372;2023-05-16T11:24:31;94112.94;;;18.73;65.99
6136;BME280;24008;42.664;23.372;2023-05-16T11:26:59;94150.88;;;18.98;66.73
6136;BME280;24008;42.664;23.372;2023-05-16T11:29:27;94150.47;;;19.01;66.88
6136;BME280;24008;42.664;23.372;2023-05-16T11:31:57;94170.72;;;19.18;65.93
6136;BME280;24008;42.664;23.372;2023-05-16T11:34:25;93972.47;;;18.01;65.79
6136;BME280;24008;42.664;23.372;2023-05-16T11:36:52;94139.84;;;19.10;65.46
6136;BME280;24008;42.664;23.372;2023-05-16T11:39:20;94122.19;;;19.00;65.74
6136;BME280;24008;42.664;23.372;2023-05-16T11:41:48;94160.66;;;19.34;65.33
6136;BME280;24008;42.664;23.372;2023-05-16T11:44:15;94172.06;;;19.65;65.14
6136;BME280;24008;42.664;23.372;2023-05-16T11:46:42;94134.28;;;19.51;62.67
6136;BME280;24008;42.664;23.372;2023-05-16T11:49:10;94148.47;;;19.73;62.76
6136;BME280;24008;42.664;23.372;2023-05-16T11:51:39;94112.34;;;19.78;62.11
6136;BME280;24008;42.664;23.372;2023-05-16T11:54:08;94162.59;;;20.27;62.33
6136;BME280;24008;42.664;23.372;2023-05-16T11:56:36;94150.44;;;20.27;61.88
6136;BME280;24008;42.664;23.372;2023-05-16T11:59:03;94173.28;;;20.62;61.43
6136;BME280;24008;42.664;23.372;2023-05-16T12:01:33;94117.31;;;20.47;61.01
6136;BME280;24008;42.664;23.372;2023-05-16T12:04:01;94114.84;;;20.71;60.72
6136;BME280;24008;42.664;23.372;2023-05-16T12:06:28;94149.28;;;21.33;59.61
6136;BME280;24008;42.664;23.372;2023-05-16T12:08:57;94143.13;;;21.57;58.69
6136;BME280;24008;42.664;23.372;2023-05-16T12:11:26;94131.41;;;21.78;57.12
6136;BME280;24008;42.664;23.372;2023-05-16T12:13:53;94121.16;;;21.95;56.86
6136;BME280;24008;42.664;23.372;2023-05-16T12:16:20;94050.97;;;21.53;55.56
6136;BME280;24008;42.664;23.372;2023-05-16T12:18:47;94138.47;;;22.12;55.06
6136;BME280;24008;42.664;23.372;2023-05-16T12:21:14;94063.19;;;21.64;55.33
6136;BME280;24008;42.664;23.372;2023-05-16T12:23:41;94134.75;;;22.08;55.93
6136;BME280;24008;42.664;23.372;2023-05-16T12:26:10;94136.88;;;22.00;55.96
6136;BME280;24008;42.664;23.372;2023-05-16T12:28:39;94035.94;;;21.43;55.77
6136;BME280;24008;42.664;23.372;2023-05-16T12:31:10;94128.63;;;22.03;55.60
6136;BME280;24008;42.664;23.372;2023-05-16T12:33:44;94026.28;;;21.20;57.00
6136;BME280;24008;42.664;23.372;2023-05-16T12:36:12;94121.63;;;21.62;57.85
6136;BME280;24008;42.664;23.372;2023-05-16T12:38:41;94100.25;;;21.18;58.02
6136;BME280;24008;42.664;23.372;2023-05-16T12:41:16;94114.69;;;21.14;59.85
6136;BME280;24008;42.664;23.372;2023-05-16T12:43:44;94121.94;;;21.12;59.97
6136;BME280;24008;42.664;23.372;2023-05-16T12:46:11;94127.56;;;21.09;59.36
6136;BME280;24008;42.664;23.372;2023-05-16T12:48:37;94050.19;;;20.51;59.81
6136;BME280;24008;42.664;23.372;2023-05-16T12:51:13;94133.72;;;20.96;59.99
6136;BME280;24008;42.664;23.372;2023-05-16T12:53:41;94063.78;;;20.28;60.61
6136;BME280;24008;42.664;23.372;2023-05-16T12:56:09;94135.47;;;20.47;61.46
6136;BME280;24008;42.664;23.372;2023-05-16T12:58:38;94149.06;;;20.25;62.71
6136;BME280;24008;42.664;23.372;2023-05-16T13:01:07;94104.97;;;19.75;63.65